sensor_id;sensor_type;location;lat;lon;timestamp;temperature;humidity
57242;DHT22;43095;53.302;5.786;2024-01-30T00:01:08;5.00;99.90
57242;DHT22;43095;53.302;5.786;2024-01-30T00:03:35;5.00;99.90
57242;DHT22;43095;53.302;5.786;2024-01-30T00:06:06;4.90;99.90
57242;DHT22;43095;53.302;5.786;2024-01-30T00:08:34;4.90;99.90
57242;DHT22;43095;53.302;5.786;2024-01-30T00:11:01;4.90;99.90
57242;DHT22;43095;53.302;5.786;2024-01-30T00:13:28;4.90;99.90
57242;DHT22;43095;53.302;5.786;2024-01-30T00:15:57;4.90;99.90
57242;DHT22;43095;53.302;5.786;2024-01-30T00:18:24;4.90;99.90
57242;DHT22;43095;53.302;5.786;2024-01-30T00:20:52;4.90;99.90
57242;DHT22;43095;53.302;5.786;2024-01-30T00:23:24;4.90;99.90
57242;DHT22;43095;53.302;5.786;2024-01-30T00:25:51;4.90;99.90
57242;DHT22;43095;53.302;5.786;2024-01-30T00:28:19;4.90;99.90
57242;DHT22;43095;53.302;5.786;2024-01-30T00:30:46;4.90;99.90
57242;DHT22;43095;53.302;5.786;2024-01-30T00:33:25;4.90;99.90
57242;DHT22;43095;53.302;5.786;2024-01-30T00:35:52;4.90;99.90
57242;DHT22;43095;53.302;5.786;2024-01-30T00:38:20;4.90;99.90
57242;DHT22;43095;53.302;5.786;2024-01-30T00:40:47;4.90;99.90
57242;DHT22;43095;53.302;5.786;2024-01-30T00:43:16;4.90;99.90
57242;DHT22;43095;53.302;5.786;2024-01-30T00:45:43;4.80;99.90
57242;DHT22;43095;53.302;5.786;2024-01-30T00:48:11;4.90;99.90
57242;DHT22;43095;53.302;5.786;2024-01-30T00:50:39;4.90;99.90
57242;DHT22;43095;53.302;5.786;2024-01-30T00:53:06;4.90;99.90
57242;DHT22;43095;53.302;5.786;2024-01-30T00:55:34;4.90;99.90
57242;DHT22;43095;53.302;5.786;2024-01-30T00:58:02;4.90;99.90
57242;DHT22;43095;53.302;5.786;2024-01-30T01:00:29;4.90;99.90
57242;DHT22;43095;53.302;5.786;2024-01-30T01:02:58;4.90;99.90
57242;DHT22;43095;53.302;5.786;2024-01-30T01:05:26;4.90;99.90
57242;DHT22;43095;53.302;5.786;2024-01-30T01:07:56;5.00;99.90
57242;DHT22;43095;53.302;5.786;2024-01-30T01:10:24;5.00;99.90
57242;DHT22;43095;53.302;5.786;2024-01-30T01:12:52;5.00;99.90
57242;DHT22;43095;53.302;5.786;2024-01-30T01:15:20;5.00;99.90
57242;DHT22;43095;53.302;5.786;2024-01-30T01:17:49;5.00;99.90
57242;DHT22;43095;53.302;5.786;2024-01-30T01:20:17;5.00;99.90
57242;DHT22;43095;53.302;5.786;2024-01-30T01:22:44;5.00;99.90
57242;DHT22;43095;53.302;5.786;2024-01-30T01:25:12;5.00;99.90
57242;DHT22;43095;53.302;5.786;2024-01-30T01:27:39;5.00;99.90
57242;DHT22;43095;53.302;5.786;2024-01-30T01:30:10;5.00;99.90
57242;DHT22;43095;53.302;5.786;2024-01-30T01:32:38;5.00;99.90
57242;DHT22;43095;53.302;5.786;2024-01-30T01:35:12;5.00;99.90
57242;DHT22;43095;53.302;5.786;2024-01-30T01:37:39;5.00;99.90
57242;DHT22;43095;53.302;5.786;2024-01-30T01:40:07;5.00;99.90
57242;DHT22;43095;53.302;5.786;2024-01-30T01:42:36;4.90;99.90
57242;DHT22;43095;53.302;5.786;2024-01-30T01:45:04;5.00;99.90
57242;DHT22;43095;53.302;5.786;2024-01-30T01:47:32;5.00;99.90
57242;DHT22;43095;53.302;5.786;2024-01-30T01:49:59;5.00;99.90
57242;DHT22;43095;53.302;5.786;2024-01-30T01:52:27;5.10;99.90
57242;DHT22;43095;53.302;5.786;2024-01-30T01:54:55;5.10;99.90
57242;DHT22;43095;53.302;5.786;2024-01-30T01:57:25;5.20;99.90
57242;DHT22;43095;53.302;5.786;2024-01-30T01:59:53;5.20;99.90
57242;DHT22;43095;53.302;5.786;2024-01-30T02:02:20;5.30;99.90
57242;DHT22;43095;53.302;5.786;2024-01-30T02:04:49;5.30;99.90
57242;DHT22;43095;53.302;5.786;2024-01-30T02:07:17;5.40;99.90
57242;DHT22;43095;53.302;5.786;2024-01-30T02:09:45;5.40;99.90
57242;DHT22;43095;53.302;5.786;2024-01-30T02:12:12;5.40;99.90
57242;DHT22;43095;53.302;5.786;2024-01-30T02:14:46;5.50;99.90
57242;DHT22;43095;53.302;5.786;2024-01-30T02:17:15;5.50;99.90
57242;DHT22;43095;53.302;5.786;2024-01-30T02:19:42;5.50;99.90
57242;DHT22;43095;53.302;5.786;2024-01-30T02:22:10;5.50;99.90
57242;DHT22;43095;53.302;5.786;2024-01-30T02:24:37;5.50;99.90
57242;DHT22;43095;53.302;5.786;2024-01-30T02:27:05;5.50;99.90
57242;DHT22;43095;53.302;5.786;2024-01-30T02:29:35;5.60;99.90
57242;DHT22;43095;53.302;5.786;2024-01-30T02:32:02;5.70;99.90
57242;DHT22;43095;53.302;5.786;2024-01-30T02:34:30;5.80;99.90
57242;DHT22;43095;53.302;5.786;2024-01-30T02:36:57;5.80;99.90
57242;DHT22;43095;53.302;5.786;2024-01-30T02:39:25;5.80;99.90
57242;DHT22;43095;53.302;5.786;2024-01-30T02:41:52;5.90;99.90
57242;DHT22;43095;53.302;5.786;2024-01-30T02:44:19;5.90;99.90
57242;DHT22;43095;53.302;5.786;2024-01-30T02:46:47;5.90;99.90
57242;DHT22;43095;53.302;5.786;2024-01-30T02:49:14;6.00;99.90
57242;DHT22;43095;53.302;5.786;2024-01-30T02:51:42;6.00;99.90
57242;DHT22;43095;53.302;5.786;2024-01-30T02:54:09;6.00;99.90
57242;DHT22;43095;53.302;5.786;2024-01-30T02:56:36;6.10;99.90
57242;DHT22;43095;53.302;5.786;2024-01-30T02:59:04;6.10;99.90
57242;DHT22;43095;53.302;5.786;2024-01-30T03:01:31;6.10;99.90
57242;DHT22;43095;53.302;5.786;2024-01-30T03:03:59;6.10;99.90
57242;DHT22;43095;53.302;5.786;2024-01-30T03:06:26;6.10;99.90
57242;DHT22;43095;53.302;5.786;2024-01-30T03:08:53;6.10;99.90
57242;DHT22;43095;53.302;5.786;2024-01-30T03:11:22;6.00;99.90
57242;DHT22;43095;53.302;5.786;2024-01-30T03:13:52;6.00;99.90
57242;DHT22;43095;53.302;5.786;2024-01-30T03:16:19;6.00;99.90
57242;DHT22;43095;53.302;5.786;2024-01-30T03:18:47;6.00;99.90
57242;DHT22;43095;53.302;5.786;2024-01-30T03:21:16;5.90;99.90
57242;DHT22;43095;53.302;5.786;2024-01-30T03:23:44;5.90;99.90
57242;DHT22;43095;53.302;5.786;2024-01-30T03:26:11;5.80;99.90
57242;DHT22;43095;53.302;5.786;2024-01-30T03:28:39;5.80;99.90
57242;DHT22;43095;53.302;5.786;2024-01-30T03:31:07;5.80;99.90
57242;DHT22;43095;53.302;5.786;2024-01-30T03:33:36;5.70;99.90
57242;DHT22;43095;53.302;5.786;2024-01-30T03:36:06;5.80;99.90
57242;DHT22;43095;53.302;5.786;2024-01-30T03:38:34;5.70;99.90
57242;DHT22;43095;53.302;5.786;2024-01-30T03:41:10;5.70;99.90
57242;DHT22;43095;53.302;5.786;2024-01-30T03:43:38;5.70;99.90
57242;DHT22;43095;53.302;5.786;2024-01-30T03:46:05;5.70;99.90
57242;DHT22;43095;53.302;5.786;2024-01-30T03:48:32;5.70;99.90
57242;DHT22;43095;53.302;5.786;2024-01-30T03:51:00;5.70;99.90
57242;DHT22;43095;53.302;5.786;2024-01-30T03:53:27;5.70;99.90
57242;DHT22;43095;53.302;5.786;2024-01-30T03:55:54;5.70;99.90
57242;DHT22;43095;53.302;5.786;2024-01-30T03:58:22;5.70;99.90
57242;DHT22;43095;53.302;5.786;2024-01-30T04:00:49;5.70;99.90
57242;DHT22;43095;53.302;5.786;2024-01-30T04:03:17;5.70;99.90
57242;DHT22;43095;53.302;5.786;2024-01-30T04:05:45;5.60;99.90
57242;DHT22;43095;53.302;5.786;2024-01-30T04:08:12;5.60;99.90
57242;DHT22;43095;53.302;5.786;2024-01-30T04:10:40;5.70;99.90
57242;DHT22;43095;53.302;5.786;2024-01-30T04:13:07;5.70;99.90
57242;DHT22;43095;53.302;5.786;2024-01-30T04:15:38;5.80;99.90
57242;DHT22;43095;53.302;5.786;2024-01-30T04:18:06;5.80;99.90
57242;DHT22;43095;53.302;5.786;2024-01-30T04:20:33;5.90;99.90
57242;DHT22;43095;53.302;5.786;2024-01-30T04:23:01;5.90;99.90
57242;DHT22;43095;53.302;5.786;2024-01-30T04:25:28;6.00;99.90
57242;DHT22;43095;53.302;5.786;2024-01-30T04:27:55;6.00;99.90
57242;DHT22;43095;53.302;5.786;2024-01-30T04:30:23;6.10;99.90
57242;DHT22;43095;53.302;5.786;2024-01-30T04:32:50;6.10;99.90
57242;DHT22;43095;53.302;5.786;2024-01-30T04:35:17;6.20;99.90
57242;DHT22;43095;53.302;5.786;2024-01-30T04:37:47;6.30;99.90
57242;DHT22;43095;53.302;5.786;2024-01-30T04:40:14;6.30;99.90
57242;DHT22;43095;53.302;5.786;2024-01-30T04:42:41;6.30;99.90
57242;DHT22;43095;53.302;5.786;2024-01-30T04:45:09;6.30;99.90
57242;DHT22;43095;53.302;5.786;2024-01-30T04:47:36;6.40;99.90
57242;DHT22;43095;53.302;5.786;2024-01-30T04:50:04;6.40;99.90
57242;DHT22;43095;53.302;5.786;2024-01-30T04:52:33;6.40;99.90
57242;DHT22;43095;53.302;5.786;2024-01-30T04:55:01;6.40;99.90
57242;DHT22;43095;53.302;5.786;2024-01-30T04:57:28;6.40;99.90
57242;DHT22;43095;53.302;5.786;2024-01-30T04:59:56;6.40;99.90
57242;DHT22;43095;53.302;5.786;2024-01-30T05:02:23;6.40;99.90
57242;DHT22;43095;53.302;5.786;2024-01-30T05:04:50;6.40;99.90
57242;DHT22;43095;53.302;5.786;2024-01-30T05:07:18;6.30;99.90
57242;DHT22;43095;53.302;5.786;2024-01-30T05:09:45;6.40;99.90
57242;DHT22;43095;53.302;5.786;2024-01-30T05:12:12;6.40;99.90
57242;DHT22;43095;53.302;5.786;2024-01-30T05:14:40;6.40;99.90
57242;DHT22;43095;53.302;5.786;2024-01-30T05:17:07;6.40;99.90
57242;DHT22;43095;53.302;5.786;2024-01-30T05:19:39;6.40;99.90
57242;DHT22;43095;53.302;5.786;2024-01-30T05:22:07;6.40;99.90
57242;DHT22;43095;53.302;5.786;2024-01-30T05:24:35;6.40;99.90
57242;DHT22;43095;53.302;5.786;2024-01-30T05:27:03;6.40;99.90
57242;DHT22;43095;53.302;5.786;2024-01-30T05:29:30;6.40;99.90
57242;DHT22;43095;53.302;5.786;2024-01-30T05:31:57;6.40;99.90
57242;DHT22;43095;53.302;5.786;2024-01-30T05:34:25;6.50;99.90
57242;DHT22;43095;53.302;5.786;2024-01-30T05:36:52;6.50;99.90
57242;DHT22;43095;53.302;5.786;2024-01-30T05:39:20;6.50;99.90
57242;DHT22;43095;53.302;5.786;2024-01-30T05:41:47;6.50;99.90
57242;DHT22;43095;53.302;5.786;2024-01-30T05:44:14;6.50;99.90
57242;DHT22;43095;53.302;5.786;2024-01-30T05:46:41;6.50;99.90
57242;DHT22;43095;53.302;5.786;2024-01-30T05:49:09;6.50;99.90
57242;DHT22;43095;53.302;5.786;2024-01-30T05:51:36;6.50;99.90
57242;DHT22;43095;53.302;5.786;2024-01-30T05:54:04;6.50;99.90
57242;DHT22;43095;53.302;5.786;2024-01-30T05:56:33;6.50;99.90
57242;DHT22;43095;53.302;5.786;2024-01-30T05:59:00;6.50;99.90
57242;DHT22;43095;53.302;5.786;2024-01-30T06:01:28;6.50;99.90
57242;DHT22;43095;53.302;5.786;2024-01-30T06:03:56;6.50;99.90
57242;DHT22;43095;53.302;5.786;2024-01-30T06:06:23;6.50;99.90
57242;DHT22;43095;53.302;5.786;2024-01-30T06:08:51;6.50;99.90
57242;DHT22;43095;53.302;5.786;2024-01-30T06:11:18;6.50;99.90
57242;DHT22;43095;53.302;5.786;2024-01-30T06:13:48;6.50;99.90
57242;DHT22;43095;53.302;5.786;2024-01-30T06:16:16;6.60;99.90
57242;DHT22;43095;53.302;5.786;2024-01-30T06:18:43;6.50;99.90
57242;DHT22;43095;53.302;5.786;2024-01-30T06:21:11;6.50;99.90
57242;DHT22;43095;53.302;5.786;2024-01-30T06:23:39;6.50;99.90
57242;DHT22;43095;53.302;5.786;2024-01-30T06:26:07;6.50;99.90
57242;DHT22;43095;53.302;5.786;2024-01-30T06:28:34;6.60;99.90
57242;DHT22;43095;53.302;5.786;2024-01-30T06:31:02;6.60;99.90
57242;DHT22;43095;53.302;5.786;2024-01-30T06:33:33;6.60;99.90
57242;DHT22;43095;53.302;5.786;2024-01-30T06:36:01;6.60;99.90
57242;DHT22;43095;53.302;5.786;2024-01-30T06:38:28;6.60;99.90
57242;DHT22;43095;53.302;5.786;2024-01-30T06:40:55;6.60;99.90
57242;DHT22;43095;53.302;5.786;2024-01-30T06:43:23;6.60;99.90
57242;DHT22;43095;53.302;5.786;2024-01-30T06:45:50;6.60;99.90
57242;DHT22;43095;53.302;5.786;2024-01-30T06:48:18;6.60;99.90
57242;DHT22;43095;53.302;5.786;2024-01-30T06:50:46;6.70;99.90
57242;DHT22;43095;53.302;5.786;2024-01-30T06:53:15;6.70;99.90
57242;DHT22;43095;53.302;5.786;2024-01-30T06:55:42;6.70;99.90
57242;DHT22;43095;53.302;5.786;2024-01-30T06:58:09;6.70;99.90
57242;DHT22;43095;53.302;5.786;2024-01-30T07:00:37;6.70;99.90
57242;DHT22;43095;53.302;5.786;2024-01-30T07:03:04;6.70;99.90
57242;DHT22;43095;53.302;5.786;2024-01-30T07:05:32;6.70;99.90
57242;DHT22;43095;53.302;5.786;2024-01-30T07:07:59;6.70;99.90
57242;DHT22;43095;53.302;5.786;2024-01-30T07:10:27;6.70;99.90
57242;DHT22;43095;53.302;5.786;2024-01-30T07:12:54;6.70;99.90
57242;DHT22;43095;53.302;5.786;2024-01-30T07:15:21;6.70;99.90
57242;DHT22;43095;53.302;5.786;2024-01-30T07:17:49;6.70;99.90
57242;DHT22;43095;53.302;5.786;2024-01-30T07:20:16;6.70;99.90
57242;DHT22;43095;53.302;5.786;2024-01-30T07:22:44;6.80;99.90
57242;DHT22;43095;53.302;5.786;2024-01-30T07:25:12;6.80;99.90
57242;DHT22;43095;53.302;5.786;2024-01-30T07:27:39;6.80;99.90
57242;DHT22;43095;53.302;5.786;2024-01-30T07:30:06;6.80;99.90
57242;DHT22;43095;53.302;5.786;2024-01-30T07:32:34;6.80;99.90
57242;DHT22;43095;53.302;5.786;2024-01-30T07:35:01;6.80;99.90
57242;DHT22;43095;53.302;5.786;2024-01-30T07:37:35;6.80;99.90
57242;DHT22;43095;53.302;5.786;2024-01-30T07:40:03;6.90;99.90
57242;DHT22;43095;53.302;5.786;2024-01-30T07:42:31;6.90;99.90
57242;DHT22;43095;53.302;5.786;2024-01-30T07:45:00;6.90;99.90
57242;DHT22;43095;53.302;5.786;2024-01-30T07:47:27;6.90;99.90
57242;DHT22;43095;53.302;5.786;2024-01-30T07:49:54;6.90;99.90
57242;DHT22;43095;53.302;5.786;2024-01-30T07:52:22;7.00;99.90
57242;DHT22;43095;53.302;5.786;2024-01-30T07:54:56;7.00;99.90
57242;DHT22;43095;53.302;5.786;2024-01-30T07:57:24;7.00;99.90
57242;DHT22;43095;53.302;5.786;2024-01-30T07:59:51;7.00;99.90
57242;DHT22;43095;53.302;5.786;2024-01-30T08:02:19;7.00;99.90
57242;DHT22;43095;53.302;5.786;2024-01-30T08:04:47;7.00;99.90
57242;DHT22;43095;53.302;5.786;2024-01-30T08:07:16;7.00;99.90
57242;DHT22;43095;53.302;5.786;2024-01-30T08:09:44;7.20;99.90
57242;DHT22;43095;53.302;5.786;2024-01-30T08:12:12;7.20;99.90
57242;DHT22;43095;53.302;5.786;2024-01-30T08:14:40;7.30;99.90
57242;DHT22;43095;53.302;5.786;2024-01-30T08:17:08;7.40;99.90
57242;DHT22;43095;53.302;5.786;2024-01-30T08:19:35;7.50;99.90
57242;DHT22;43095;53.302;5.786;2024-01-30T08:22:03;7.60;99.90
57242;DHT22;43095;53.302;5.786;2024-01-30T08:24:30;7.70;99.90
57242;DHT22;43095;53.302;5.786;2024-01-30T08:26:57;7.70;99.90
57242;DHT22;43095;53.302;5.786;2024-01-30T08:29:25;7.80;99.90
57242;DHT22;43095;53.302;5.786;2024-01-30T08:31:52;7.80;99.90
57242;DHT22;43095;53.302;5.786;2024-01-30T08:34:20;7.80;99.90
57242;DHT22;43095;53.302;5.786;2024-01-30T08:36:48;7.90;99.90
57242;DHT22;43095;53.302;5.786;2024-01-30T08:39:17;8.00;99.90
57242;DHT22;43095;53.302;5.786;2024-01-30T08:41:45;8.00;99.90
57242;DHT22;43095;53.302;5.786;2024-01-30T08:44:21;8.00;99.90
57242;DHT22;43095;53.302;5.786;2024-01-30T08:46:50;8.00;99.90
57242;DHT22;43095;53.302;5.786;2024-01-30T08:49:22;8.00;99.90
57242;DHT22;43095;53.302;5.786;2024-01-30T08:51:57;8.00;99.90
57242;DHT22;43095;53.302;5.786;2024-01-30T08:54:30;8.10;99.90
57242;DHT22;43095;53.302;5.786;2024-01-30T08:57:06;8.10;99.90
57242;DHT22;43095;53.302;5.786;2024-01-30T08:59:34;8.10;99.90
57242;DHT22;43095;53.302;5.786;2024-01-30T09:02:01;8.10;99.90
57242;DHT22;43095;53.302;5.786;2024-01-30T09:04:39;8.10;99.90
57242;DHT22;43095;53.302;5.786;2024-01-30T09:07:09;8.20;99.90
57242;DHT22;43095;53.302;5.786;2024-01-30T09:09:40;8.20;99.90
57242;DHT22;43095;53.302;5.786;2024-01-30T09:12:11;8.20;99.90
57242;DHT22;43095;53.302;5.786;2024-01-30T09:14:42;8.30;99.90
57242;DHT22;43095;53.302;5.786;2024-01-30T09:17:32;8.30;99.90
57242;DHT22;43095;53.302;5.786;2024-01-30T09:20:01;8.30;99.90
57242;DHT22;43095;53.302;5.786;2024-01-30T09:22:29;8.30;99.90
57242;DHT22;43095;53.302;5.786;2024-01-30T09:25:04;8.40;99.90
57242;DHT22;43095;53.302;5.786;2024-01-30T09:27:31;8.40;99.90
57242;DHT22;43095;53.302;5.786;2024-01-30T09:30:04;8.40;99.90
57242;DHT22;43095;53.302;5.786;2024-01-30T09:32:32;8.50;99.90
57242;DHT22;43095;53.302;5.786;2024-01-30T09:35:02;8.50;99.90
57242;DHT22;43095;53.302;5.786;2024-01-30T09:37:30;8.50;99.90
57242;DHT22;43095;53.302;5.786;2024-01-30T09:39:58;8.60;99.90
57242;DHT22;43095;53.302;5.786;2024-01-30T09:42:35;8.60;99.90
57242;DHT22;43095;53.302;5.786;2024-01-30T09:45:17;8.60;99.90
57242;DHT22;43095;53.302;5.786;2024-01-30T09:47:51;8.60;99.90
57242;DHT22;43095;53.302;5.786;2024-01-30T09:50:27;8.60;99.90
57242;DHT22;43095;53.302;5.786;2024-01-30T09:53:00;8.60;99.90
57242;DHT22;43095;53.302;5.786;2024-01-30T09:55:33;8.60;99.90
57242;DHT22;43095;53.302;5.786;2024-01-30T09:58:04;8.60;99.90
57242;DHT22;43095;53.302;5.786;2024-01-30T10:00:40;8.60;99.90
57242;DHT22;43095;53.302;5.786;2024-01-30T10:03:08;8.60;99.90
57242;DHT22;43095;53.302;5.786;2024-01-30T10:05:40;8.60;99.90
57242;DHT22;43095;53.302;5.786;2024-01-30T10:08:11;8.60;99.90
57242;DHT22;43095;53.302;5.786;2024-01-30T10:10:38;8.60;99.90
57242;DHT22;43095;53.302;5.786;2024-01-30T10:13:16;8.60;99.90
57242;DHT22;43095;53.302;5.786;2024-01-30T10:15:59;8.70;99.90
57242;DHT22;43095;53.302;5.786;2024-01-30T10:18:30;8.70;99.90
57242;DHT22;43095;53.302;5.786;2024-01-30T10:21:12;8.70;99.90
57242;DHT22;43095;53.302;5.786;2024-01-30T10:23:52;8.70;99.90
57242;DHT22;43095;53.302;5.786;2024-01-30T10:26:27;8.60;99.90
57242;DHT22;43095;53.302;5.786;2024-01-30T10:29:07;8.60;99.90
57242;DHT22;43095;53.302;5.786;2024-01-30T10:32:04;8.60;99.90
57242;DHT22;43095;53.302;5.786;2024-01-30T10:34:34;8.60;99.90
57242;DHT22;43095;53.302;5.786;2024-01-30T10:37:09;8.60;99.90
57242;DHT22;43095;53.302;5.786;2024-01-30T10:39:46;8.60;99.90
57242;DHT22;43095;53.302;5.786;2024-01-30T10:42:20;8.60;99.90
57242;DHT22;43095;53.302;5.786;2024-01-30T10:45:11;8.60;99.90
57242;DHT22;43095;53.302;5.786;2024-01-30T10:47:53;8.60;99.90
57242;DHT22;43095;53.302;5.786;2024-01-30T10:50:36;8.60;99.90
57242;DHT22;43095;53.302;5.786;2024-01-30T10:53:22;8.60;99.90
57242;DHT22;43095;53.302;5.786;2024-01-30T10:55:53;8.60;99.90
57242;DHT22;43095;53.302;5.786;2024-01-30T10:58:22;8.60;99.90
57242;DHT22;43095;53.302;5.786;2024-01-30T11:00:50;8.50;99.90
57242;DHT22;43095;53.302;5.786;2024-01-30T11:03:19;8.50;99.90
57242;DHT22;43095;53.302;5.786;2024-01-30T11:05:51;8.50;99.90
57242;DHT22;43095;53.302;5.786;2024-01-30T11:08:35;8.50;99.90
57242;DHT22;43095;53.302;5.786;2024-01-30T11:11:13;8.40;99.90
57242;DHT22;43095;53.302;5.786;2024-01-30T11:13:50;8.40;99.90
57242;DHT22;43095;53.302;5.786;2024-01-30T11:16:20;8.40;99.90
57242;DHT22;43095;53.302;5.786;2024-01-30T11:19:30;8.40;99.90
57242;DHT22;43095;53.302;5.786;2024-01-30T11:22:06;8.40;99.90
57242;DHT22;43095;53.302;5.786;2024-01-30T11:24:47;8.40;99.90
57242;DHT22;43095;53.302;5.786;2024-01-30T11:27:21;8.40;99.90
57242;DHT22;43095;53.302;5.786;2024-01-30T11:29:53;8.40;99.90
57242;DHT22;43095;53.302;5.786;2024-01-30T11:32:26;8.40;99.90
57242;DHT22;43095;53.302;5.786;2024-01-30T11:34:59;8.40;99.90
57242;DHT22;43095;53.302;5.786;2024-01-30T11:37:47;8.40;99.90
57242;DHT22;43095;53.302;5.786;2024-01-30T11:40:16;8.30;99.90
57242;DHT22;43095;53.302;5.786;2024-01-30T11:42:47;8.30;99.90
57242;DHT22;43095;53.302;5.786;2024-01-30T11:45:22;8.30;99.90
57242;DHT22;43095;53.302;5.786;2024-01-30T11:47:49;8.20;99.90
57242;DHT22;43095;53.302;5.786;2024-01-30T11:50:17;8.20;99.90
57242;DHT22;43095;53.302;5.786;2024-01-30T11:52:45;8.20;99.90
57242;DHT22;43095;53.302;5.786;2024-01-30T11:55:21;8.20;99.90
57242;DHT22;43095;53.302;5.786;2024-01-30T11:57:51;8.20;99.90
57242;DHT22;43095;53.302;5.786;2024-01-30T12:00:26;8.10;99.90
57242;DHT22;43095;53.302;5.786;2024-01-30T12:02:58;8.10;99.90
57242;DHT22;43095;53.302;5.786;2024-01-30T12:05:28;8.10;99.90
57242;DHT22;43095;53.302;5.786;2024-01-30T12:07:59;8.10;99.90
57242;DHT22;43095;53.302;5.786;2024-01-30T12:10:31;8.10;99.90
57242;DHT22;43095;53.302;5.786;2024-01-30T12:13:00;8.10;99.90
57242;DHT22;43095;53.302;5.786;2024-01-30T12:15:28;8.20;99.90
57242;DHT22;43095;53.302;5.786;2024-01-30T12:18:05;8.20;99.90
57242;DHT22;43095;53.302;5.786;2024-01-30T12:20:34;8.20;99.90
57242;DHT22;43095;53.302;5.786;2024-01-30T12:23:02;8.20;99.90
57242;DHT22;43095;53.302;5.786;2024-01-30T12:25:29;8.20;99.90
57242;DHT22;43095;53.302;5.786;2024-01-30T12:27:57;8.20;99.90
57242;DHT22;43095;53.302;5.786;2024-01-30T12:30:25;8.20;99.90
57242;DHT22;43095;53.302;5.786;2024-01-30T12:32:52;8.20;99.90
57242;DHT22;43095;53.302;5.786;2024-01-30T12:35:20;8.20;99.90
57242;DHT22;43095;53.302;5.786;2024-01-30T12:37:49;8.20;99.90
57242;DHT22;43095;53.302;5.786;2024-01-30T12:40:17;8.20;99.90
57242;DHT22;43095;53.302;5.786;2024-01-30T12:42:49;8.10;99.90
57242;DHT22;43095;53.302;5.786;2024-01-30T12:45:17;8.10;99.90
57242;DHT22;43095;53.302;5.786;2024-01-30T12:47:50;8.10;99.90
57242;DHT22;43095;53.302;5.786;2024-01-30T12:50:17;8.10;99.90
57242;DHT22;43095;53.302;5.786;2024-01-30T12:52:46;8.10;99.90
57242;DHT22;43095;53.302;5.786;2024-01-30T12:55:16;8.10;99.90
57242;DHT22;43095;53.302;5.786;2024-01-30T12:57:45;8.00;99.90
57242;DHT22;43095;53.302;5.786;2024-01-30T13:00:13;8.00;99.90
57242;DHT22;43095;53.302;5.786;2024-01-30T13:02:42;8.10;99.90
57242;DHT22;43095;53.302;5.786;2024-01-30T13:05:12;8.00;99.90
57242;DHT22;43095;53.302;5.786;2024-01-30T13:07:42;8.00;99.90
57242;DHT22;43095;53.302;5.786;2024-01-30T13:10:10;8.00;99.90
57242;DHT22;43095;53.302;5.786;2024-01-30T13:12:38;8.00;99.90
57242;DHT22;43095;53.302;5.786;2024-01-30T13:15:06;8.00;99.90
57242;DHT22;43095;53.302;5.786;2024-01-30T13:17:33;8.00;99.90
57242;DHT22;43095;53.302;5.786;2024-01-30T13:20:01;8.00;99.90
57242;DHT22;43095;53.302;5.786;2024-01-30T13:22:39;8.00;99.90
57242;DHT22;43095;53.302;5.786;2024-01-30T13:25:07;8.00;99.90
57242;DHT22;43095;53.302;5.786;2024-01-30T13:27:36;8.00;99.90
57242;DHT22;43095;53.302;5.786;2024-01-30T13:30:07;8.00;99.90
57242;DHT22;43095;53.302;5.786;2024-01-30T13:32:37;8.00;99.90
57242;DHT22;43095;53.302;5.786;2024-01-30T13:35:08;8.00;99.90
57242;DHT22;43095;53.302;5.786;2024-01-30T13:37:39;8.00;99.90
57242;DHT22;43095;53.302;5.786;2024-01-30T13:40:06;8.00;99.90
57242;DHT22;43095;53.302;5.786;2024-01-30T13:42:38;8.00;99.90
57242;DHT22;43095;53.302;5.786;2024-01-30T13:45:06;8.00;99.90
57242;DHT22;43095;53.302;5.786;2024-01-30T13:47:34;8.00;99.90
57242;DHT22;43095;53.302;5.786;2024-01-30T13:50:05;8.00;99.90
57242;DHT22;43095;53.302;5.786;2024-01-30T13:52:33;8.00;99.90
57242;DHT22;43095;53.302;5.786;2024-01-30T13:55:11;8.00;99.90
57242;DHT22;43095;53.302;5.786;2024-01-30T13:57:38;8.00;99.90
57242;DHT22;43095;53.302;5.786;2024-01-30T14:00:06;8.00;99.90
57242;DHT22;43095;53.302;5.786;2024-01-30T14:02:40;8.00;99.90
57242;DHT22;43095;53.302;5.786;2024-01-30T14:05:07;8.00;99.90
57242;DHT22;43095;53.302;5.786;2024-01-30T14:07:37;8.00;99.90
57242;DHT22;43095;53.302;5.786;2024-01-30T14:10:07;8.00;99.90
57242;DHT22;43095;53.302;5.786;2024-01-30T14:12:39;8.00;99.90
57242;DHT22;43095;53.302;5.786;2024-01-30T14:15:08;8.00;99.90
57242;DHT22;43095;53.302;5.786;2024-01-30T14:17:53;8.00;99.90
57242;DHT22;43095;53.302;5.786;2024-01-30T14:20:20;8.00;99.90
57242;DHT22;43095;53.302;5.786;2024-01-30T14:22:48;8.00;99.90
57242;DHT22;43095;53.302;5.786;2024-01-30T14:25:15;8.00;99.90
57242;DHT22;43095;53.302;5.786;2024-01-30T14:27:43;8.00;99.90
57242;DHT22;43095;53.302;5.786;2024-01-30T14:30:11;8.00;99.90
57242;DHT22;43095;53.302;5.786;2024-01-30T14:32:39;8.00;99.90
57242;DHT22;43095;53.302;5.786;2024-01-30T14:35:09;7.90;99.90
57242;DHT22;43095;53.302;5.786;2024-01-30T14:37:37;7.90;99.90
57242;DHT22;43095;53.302;5.786;2024-01-30T14:40:05;7.80;99.90
57242;DHT22;43095;53.302;5.786;2024-01-30T14:42:37;7.80;99.90
57242;DHT22;43095;53.302;5.786;2024-01-30T14:45:07;7.80;99.90
57242;DHT22;43095;53.302;5.786;2024-01-30T14:47:35;7.80;99.90
57242;DHT22;43095;53.302;5.786;2024-01-30T14:50:03;7.80;99.90
57242;DHT22;43095;53.302;5.786;2024-01-30T14:52:36;7.70;99.90
57242;DHT22;43095;53.302;5.786;2024-01-30T14:55:04;7.60;99.90
57242;DHT22;43095;53.302;5.786;2024-01-30T14:57:32;7.60;99.90
57242;DHT22;43095;53.302;5.786;2024-01-30T15:00:02;7.60;99.90
57242;DHT22;43095;53.302;5.786;2024-01-30T15:02:30;7.50;99.90
57242;DHT22;43095;53.302;5.786;2024-01-30T15:04:57;7.50;99.90
57242;DHT22;43095;53.302;5.786;2024-01-30T15:07:25;7.50;99.90
57242;DHT22;43095;53.302;5.786;2024-01-30T15:10:05;7.50;99.90
57242;DHT22;43095;53.302;5.786;2024-01-30T15:12:33;7.40;99.90
57242;DHT22;43095;53.302;5.786;2024-01-30T15:15:01;7.30;99.90
57242;DHT22;43095;53.302;5.786;2024-01-30T15:17:28;7.30;99.90
57242;DHT22;43095;53.302;5.786;2024-01-30T15:19:56;7.20;99.90
57242;DHT22;43095;53.302;5.786;2024-01-30T15:22:26;7.20;99.90
57242;DHT22;43095;53.302;5.786;2024-01-30T15:24:53;7.20;99.90
57242;DHT22;43095;53.302;5.786;2024-01-30T15:27:21;7.20;99.90
57242;DHT22;43095;53.302;5.786;2024-01-30T15:29:52;7.10;99.90
57242;DHT22;43095;53.302;5.786;2024-01-30T15:32:22;7.00;99.90
57242;DHT22;43095;53.302;5.786;2024-01-30T15:34:49;7.00;99.90
57242;DHT22;43095;53.302;5.786;2024-01-30T15:37:17;7.00;99.90
57242;DHT22;43095;53.302;5.786;2024-01-30T15:39:45;7.00;99.90
57242;DHT22;43095;53.302;5.786;2024-01-30T15:42:12;7.00;99.90
57242;DHT22;43095;53.302;5.786;2024-01-30T15:44:41;7.00;99.90
57242;DHT22;43095;53.302;5.786;2024-01-30T15:47:10;7.00;99.90
57242;DHT22;43095;53.302;5.786;2024-01-30T15:49:41;6.90;99.90
57242;DHT22;43095;53.302;5.786;2024-01-30T15:52:19;6.90;99.90
57242;DHT22;43095;53.302;5.786;2024-01-30T15:54:47;6.90;99.90
57242;DHT22;43095;53.302;5.786;2024-01-30T15:57:19;6.90;99.90
57242;DHT22;43095;53.302;5.786;2024-01-30T15:59:49;6.90;99.90